createdAt,value
2022-09-12T00:01:22.144Z,20.47
2022-09-12T00:03:53.146Z,20.41
2022-09-12T00:06:23.935Z,20.32
2022-09-12T00:08:52.484Z,20.13
2022-09-12T00:11:20.825Z,20.18
2022-09-12T00:13:49.661Z,20.12
2022-09-12T00:16:18.961Z,20.08
2022-09-12T00:18:47.802Z,20.12
2022-09-12T00:21:19.179Z,20.11
2022-09-12T00:23:48.148Z,20.07
2022-09-12T00:26:17.292Z,19.90
2022-09-12T00:28:46.384Z,19.96
2022-09-12T00:31:17.015Z,19.75
2022-09-12T00:33:45.684Z,19.89
2022-09-12T00:36:16.357Z,20.04
2022-09-12T00:38:46.793Z,20.08
2022-09-12T00:41:17.965Z,20.01
2022-09-12T00:43:48.228Z,20.10
2022-09-12T00:46:29.752Z,20.15
2022-09-12T00:49:01.905Z,20.12
2022-09-12T00:51:33.402Z,20.21
2022-09-12T00:54:06.959Z,20.27
2022-09-12T00:56:36.837Z,20.31
2022-09-12T00:59:11.593Z,20.27
2022-09-12T01:01:41.847Z,20.15
2022-09-12T01:04:11.374Z,20.06
2022-09-12T01:06:43.289Z,19.98
2022-09-12T01:09:17.013Z,19.91
2022-09-12T01:11:47.265Z,19.91
2022-09-12T01:14:16.007Z,19.96
2022-09-12T01:16:45.922Z,19.91
2022-09-12T01:19:43.498Z,19.81
2022-09-12T01:22:28.011Z,19.87
2022-09-12T01:25:08.226Z,19.78
2022-09-12T01:27:50.477Z,19.82
2022-09-12T01:30:48.785Z,19.97
2022-09-12T01:33:45.206Z,19.79
2022-09-12T01:36:28.857Z,19.81
2022-09-12T01:39:02.323Z,19.75
2022-09-12T01:41:37.026Z,19.76
2022-09-12T01:44:14.990Z,19.76
2022-09-12T01:46:50.093Z,19.75
2022-09-12T01:49:23.017Z,19.75
2022-09-12T01:51:58.798Z,19.75
2022-09-12T01:54:33.104Z,19.67
2022-09-12T01:57:08.348Z,19.67
2022-09-12T01:59:41.797Z,19.70
2022-09-12T02:02:16.610Z,19.49
2022-09-12T02:04:52.219Z,19.44
2022-09-12T02:07:24.006Z,19.33
2022-09-12T02:09:55.738Z,19.39
2022-09-12T02:12:29.196Z,19.44
2022-09-12T02:15:02.360Z,19.32
2022-09-12T02:17:35.685Z,19.17
2022-09-12T02:20:08.239Z,19.26
2022-09-12T02:22:39.049Z,19.36
2022-09-12T02:25:10.646Z,19.09
2022-09-12T02:27:42.508Z,19.27
2022-09-12T02:30:14.445Z,19.35
2022-09-12T02:32:55.387Z,19.30
2022-09-12T02:35:32.993Z,19.19
2022-09-12T02:38:07.428Z,19.17
2022-09-12T02:40:36.178Z,19.23
2022-09-12T02:43:05.894Z,19.10
2022-09-12T02:45:35.309Z,19.09
2022-09-12T02:48:12.778Z,19.07
2022-09-12T02:50:42.025Z,19.10
2022-09-12T02:53:11.698Z,19.09
2022-09-12T02:55:42.582Z,19.14
2022-09-12T02:58:16.134Z,19.03
2022-09-12T03:00:53.210Z,18.88
2022-09-12T03:03:43.295Z,18.86
2022-09-12T03:06:19.972Z,18.79
2022-09-12T03:09:01.982Z,18.78
2022-09-12T03:11:58.141Z,18.74
2022-09-12T03:14:44.094Z,18.90
2022-09-12T03:17:24.896Z,18.94
2022-09-12T03:20:02.917Z,18.84
2022-09-12T03:22:38.024Z,18.81
2022-09-12T03:25:17.520Z,18.78
2022-09-12T03:27:52.379Z,18.83
2022-09-12T03:30:20.623Z,18.68
2022-09-12T03:32:50.996Z,18.67
2022-09-12T03:35:23.173Z,18.67
2022-09-12T03:37:52.816Z,18.81
2022-09-12T03:40:21.402Z,18.75
2022-09-12T03:42:50.392Z,18.78
2022-09-12T03:45:18.649Z,18.79
2022-09-12T03:47:46.765Z,18.88
2022-09-12T03:50:15.377Z,18.83
2022-09-12T03:52:44.877Z,18.62
2022-09-12T03:55:13.804Z,18.75
2022-09-12T03:57:41.961Z,18.73
2022-09-12T04:00:11.057Z,18.68
2022-09-12T04:02:39.248Z,18.70
2022-09-12T04:05:07.829Z,18.74
2022-09-12T04:07:36.002Z,18.72
2022-09-12T04:10:06.265Z,18.53
2022-09-12T04:12:35.648Z,18.49
2022-09-12T04:15:03.945Z,18.48
2022-09-12T04:17:32.137Z,18.48
2022-09-12T04:20:00.288Z,18.45
2022-09-12T04:22:29.940Z,18.42
2022-09-12T04:24:58.122Z,18.36
2022-09-12T04:27:27.685Z,18.28
2022-09-12T04:29:56.277Z,18.36
2022-09-12T04:32:24.397Z,18.38
2022-09-12T04:34:53.526Z,18.37
2022-09-12T04:37:23.637Z,18.24
2022-09-12T04:39:56.095Z,18.16
2022-09-12T04:42:24.603Z,18.14
2022-09-12T04:44:54.737Z,18.25
2022-09-12T04:47:23.210Z,18.18
2022-09-12T04:49:52.498Z,18.13
2022-09-12T04:52:20.789Z,18.03
2022-09-12T04:54:48.986Z,18.03
2022-09-12T04:57:17.140Z,18.01
2022-09-12T04:59:45.277Z,18.08
2022-09-12T05:02:14.818Z,18.14
2022-09-12T05:04:43.025Z,18.13
2022-09-12T05:07:11.981Z,18.06
2022-09-12T05:09:40.154Z,18.07
2022-09-12T05:12:09.489Z,18.12
2022-09-12T05:14:37.977Z,18.16
2022-09-12T05:17:07.081Z,18.05
2022-09-12T05:19:36.976Z,18.19
2022-09-12T05:22:06.758Z,18.29
2022-09-12T05:24:35.297Z,18.15
2022-09-12T05:27:04.951Z,18.15
2022-09-12T05:29:34.174Z,18.19
2022-09-12T05:32:02.701Z,18.18
2022-09-12T05:34:30.850Z,18.20
2022-09-12T05:37:00.406Z,18.14
2022-09-12T05:39:28.594Z,18.24
2022-09-12T05:41:56.884Z,18.29
2022-09-12T05:44:25.125Z,18.32
2022-09-12T05:46:53.735Z,18.31
2022-09-12T05:49:22.685Z,18.36
2022-09-12T05:51:51.678Z,18.19
2022-09-12T05:54:21.537Z,18.20
2022-09-12T05:56:50.121Z,18.22
2022-09-12T05:59:20.574Z,18.21
2022-09-12T06:01:49.805Z,18.18
2022-09-12T06:04:18.241Z,18.27
2022-09-12T06:06:47.459Z,18.32
2022-09-12T06:09:17.321Z,18.28
2022-09-12T06:11:47.798Z,18.44
2022-09-12T06:14:18.032Z,18.48
2022-09-12T06:16:47.236Z,18.53
2022-09-12T06:19:18.132Z,18.52
2022-09-12T06:21:47.701Z,18.68
2022-09-12T06:24:15.923Z,18.64
2022-09-12T06:26:44.666Z,18.79
2022-09-12T06:29:14.925Z,18.79
2022-09-12T06:31:44.039Z,18.90
2022-09-12T06:34:14.129Z,18.79
2022-09-12T06:36:44.986Z,18.90
2022-09-12T06:39:14.732Z,19.01
2022-09-12T06:41:44.255Z,18.96
2022-09-12T06:44:17.196Z,19.06
2022-09-12T06:46:45.755Z,19.19
2022-09-12T06:49:14.277Z,19.13
2022-09-12T06:51:43.341Z,19.34
2022-09-12T06:54:14.452Z,19.41
2022-09-12T06:56:42.602Z,19.44
2022-09-12T06:59:11.496Z,19.26
2022-09-12T07:01:42.950Z,19.57
2022-09-12T07:04:11.645Z,19.61
2022-09-12T07:06:41.564Z,19.93
2022-09-12T07:09:12.543Z,19.84
2022-09-12T07:11:52.932Z,20.02
2022-09-12T07:14:21.155Z,20.30
2022-09-12T07:16:50.737Z,20.31
2022-09-12T07:19:18.958Z,20.26
2022-09-12T07:21:47.123Z,20.16
2022-09-12T07:24:15.418Z,20.04
2022-09-12T07:26:44.130Z,20.24
2022-09-12T07:32:07.737Z,20.67
2022-09-12T07:34:36.436Z,20.58
2022-09-12T07:37:04.781Z,20.48
2022-09-12T07:39:33.527Z,20.74
2022-09-12T07:42:01.691Z,20.69
2022-09-12T07:44:30.280Z,20.58
2022-09-12T07:46:58.470Z,20.53
2022-09-12T07:49:27.973Z,20.56
2022-09-12T07:51:56.158Z,20.66
2022-09-12T07:54:24.465Z,20.55
2022-09-12T07:56:52.774Z,20.66
2022-09-12T07:59:41.556Z,20.71
2022-09-12T08:02:17.191Z,21.05
2022-09-12T08:04:48.561Z,21.19
2022-09-12T08:07:18.449Z,21.24
2022-09-12T08:09:46.697Z,21.00
2022-09-12T08:12:15.701Z,21.12
2022-09-12T08:14:43.850Z,20.89
2022-09-12T08:17:12.066Z,20.98
2022-09-12T08:19:40.227Z,21.39
2022-09-12T08:22:09.930Z,21.71
2022-09-12T08:24:39.389Z,21.60
2022-09-12T08:27:07.863Z,21.90
2022-09-12T08:29:36.035Z,22.03
2022-09-12T08:32:05.085Z,22.39
2022-09-12T08:34:33.322Z,22.21
2022-09-12T08:37:01.479Z,22.31
2022-09-12T08:39:31.033Z,22.56
2022-09-12T08:42:03.129Z,22.54
2022-09-12T08:44:59.954Z,22.75
2022-09-12T08:47:32.695Z,22.68
2022-09-12T08:50:11.799Z,22.90
2022-09-12T08:52:49.189Z,23.03
2022-09-12T08:55:36.965Z,23.11
2022-09-12T08:58:14.655Z,23.30
2022-09-12T09:00:50.822Z,23.42
2022-09-12T09:03:57.264Z,23.49
2022-09-12T09:06:43.561Z,23.49
2022-09-12T09:09:21.554Z,23.50
2022-09-12T09:12:01.877Z,23.43
2022-09-12T09:14:50.881Z,23.85
2022-09-12T09:17:28.097Z,23.88
2022-09-12T09:20:05.054Z,23.92
2022-09-12T09:22:39.586Z,24.07
2022-09-12T09:25:13.803Z,23.94
2022-09-12T09:27:50.458Z,24.26
2022-09-12T09:30:21.626Z,24.41
2022-09-12T09:32:53.691Z,24.61
2022-09-12T09:35:36.240Z,24.54
2022-09-12T09:38:19.130Z,24.63
2022-09-12T09:40:56.507Z,24.85
2022-09-12T09:43:29.113Z,24.80
2022-09-12T09:45:59.450Z,24.74
2022-09-12T09:48:31.326Z,24.98
2022-09-12T09:51:01.974Z,25.07
2022-09-12T09:53:38.362Z,25.36
2022-09-12T09:56:13.460Z,25.49
2022-09-12T09:58:43.709Z,25.57
2022-09-12T10:01:18.405Z,25.62
2022-09-12T10:03:51.729Z,25.26
2022-09-12T10:06:32.400Z,25.76
2022-09-12T10:09:18.925Z,25.98
2022-09-12T10:11:47.777Z,25.89
2022-09-12T10:14:39.211Z,26.22
2022-09-12T10:17:34.136Z,26.40
2022-09-12T10:20:20.516Z,26.40
2022-09-12T10:22:50.436Z,26.51
2022-09-12T10:25:20.786Z,26.72
2022-09-12T10:27:55.348Z,26.77
2022-09-12T10:30:28.395Z,26.80
2022-09-12T10:33:06.519Z,26.56
2022-09-12T10:35:47.204Z,27.00
2022-09-12T10:38:22.727Z,27.15
2022-09-12T10:40:59.293Z,27.37
2022-09-12T10:43:37.347Z,27.48
2022-09-12T10:46:29.175Z,26.90
2022-09-12T10:49:22.758Z,26.59
2022-09-12T10:51:52.165Z,27.16
2022-09-12T10:54:22.770Z,26.86
2022-09-12T10:57:26.634Z,26.95
2022-09-12T11:00:08.090Z,26.85
2022-09-12T11:02:50.199Z,27.24
2022-09-12T11:05:32.174Z,27.54
2022-09-12T11:08:10.854Z,27.68
2022-09-12T11:10:49.130Z,27.49
2022-09-12T11:13:26.614Z,27.67
2022-09-12T11:16:08.160Z,27.76
2022-09-12T11:19:03.879Z,27.93
2022-09-12T11:21:48.494Z,27.64
2022-09-12T11:24:44.488Z,27.48
2022-09-12T11:27:26.941Z,27.64
2022-09-12T11:29:59.877Z,28.00
2022-09-12T11:32:45.882Z,28.21
2022-09-12T11:35:25.793Z,28.30
2022-09-12T11:38:29.834Z,28.23
2022-09-12T11:41:03.324Z,27.77
2022-09-12T11:43:39.626Z,28.08
2022-09-12T11:46:15.871Z,28.33
2022-09-12T11:48:50.603Z,28.44
2022-09-12T11:51:25.639Z,28.50
2022-09-12T11:54:04.696Z,28.69
2022-09-12T11:56:33.241Z,28.58
2022-09-12T11:59:10.311Z,28.61
2022-09-12T12:01:47.762Z,28.29
2022-09-12T12:04:21.970Z,28.46
2022-09-12T12:06:59.449Z,28.64
2022-09-12T12:09:27.713Z,29.02
2022-09-12T12:11:59.322Z,29.12
2022-09-12T12:14:34.285Z,29.25
2022-09-12T12:17:02.463Z,29.43
2022-09-12T12:19:35.829Z,29.15
2022-09-12T12:22:17.081Z,29.58
2022-09-12T12:25:32.708Z,29.63
2022-09-12T12:28:02.451Z,29.88
2022-09-12T12:31:02.422Z,29.82
2022-09-12T12:34:16.409Z,29.83
2022-09-12T12:36:44.703Z,30.12
2022-09-12T12:40:04.690Z,30.00
2022-09-12T12:43:09.094Z,29.92
2022-09-12T12:46:10.736Z,30.33
2022-09-12T12:49:10.647Z,30.42
2022-09-12T12:51:57.880Z,30.44
2022-09-12T12:54:33.163Z,30.47
2022-09-12T12:57:19.770Z,30.57
2022-09-12T12:59:51.918Z,30.23
2022-09-12T13:02:25.158Z,30.28
2022-09-12T13:04:56.291Z,30.13
2022-09-12T13:07:42.257Z,30.69
2022-09-12T13:10:23.350Z,31.03
2022-09-12T13:12:53.192Z,31.09
2022-09-12T13:15:49.699Z,31.08
2022-09-12T13:18:25.135Z,30.34
2022-09-12T13:21:02.102Z,29.98
2022-09-12T13:23:31.874Z,30.50
2022-09-12T13:26:01.878Z,31.25
2022-09-12T13:28:31.342Z,31.46
2022-09-12T13:31:04.116Z,31.35
2022-09-12T13:33:42.322Z,31.58
2022-09-12T13:36:41.232Z,31.29
2022-09-12T13:39:18.825Z,31.35
2022-09-12T13:42:06.659Z,31.63
2022-09-12T13:44:43.079Z,31.73
2022-09-12T13:47:17.603Z,32.22
2022-09-12T13:49:47.912Z,31.49
2022-09-12T13:52:22.497Z,31.20
2022-09-12T13:54:54.619Z,31.30
2022-09-12T13:57:36.245Z,31.26
2022-09-12T14:00:07.641Z,31.18
2022-09-12T14:02:37.829Z,31.37
2022-09-12T14:05:20.245Z,31.63
2022-09-12T14:07:59.669Z,31.34
2022-09-12T14:10:33.012Z,31.57
2022-09-12T14:13:03.413Z,31.55
2022-09-12T14:15:33.881Z,31.49
2022-09-12T14:18:04.227Z,31.37
2022-09-12T14:20:36.689Z,31.35
2022-09-12T14:23:07.777Z,31.54
2022-09-12T14:25:41.491Z,31.42
2022-09-12T14:28:22.784Z,31.17
2022-09-12T14:31:06.613Z,31.09
2022-09-12T14:33:47.921Z,30.97
2022-09-12T14:36:23.351Z,30.84
2022-09-12T14:38:56.874Z,30.93
2022-09-12T14:41:28.947Z,31.30
2022-09-12T14:44:00.478Z,31.71
2022-09-12T14:46:34.628Z,32.09
2022-09-12T14:49:09.381Z,31.57
2022-09-12T14:51:41.230Z,31.62
2022-09-12T14:54:37.507Z,31.83
2022-09-12T14:57:08.027Z,31.84
2022-09-12T14:59:41.710Z,31.95
2022-09-12T15:02:28.518Z,31.96
2022-09-12T15:05:17.964Z,31.71
2022-09-12T15:07:53.857Z,31.86
2022-09-12T15:10:27.114Z,31.42
2022-09-12T15:13:19.005Z,30.95
2022-09-12T15:15:49.556Z,31.07
2022-09-12T15:18:18.788Z,30.83
2022-09-12T15:20:50.035Z,30.92
2022-09-12T15:23:31.076Z,30.71
2022-09-12T15:26:01.440Z,30.74
2022-09-12T15:28:32.214Z,30.61
2022-09-12T15:31:07.308Z,30.62
2022-09-12T15:33:35.657Z,30.82
2022-09-12T15:36:04.070Z,30.91
2022-09-12T15:38:32.216Z,30.76
2022-09-12T15:41:01.818Z,30.78
2022-09-12T15:43:29.977Z,30.67
2022-09-12T15:45:59.367Z,30.57
2022-09-12T15:48:27.681Z,30.55
2022-09-12T15:51:01.396Z,30.45
2022-09-12T15:53:29.785Z,30.50
2022-09-12T15:55:58.029Z,30.53
2022-09-12T15:58:28.713Z,30.46
2022-09-12T16:00:57.138Z,30.57
2022-09-12T16:03:27.632Z,30.54
2022-09-12T16:05:58.151Z,30.48
2022-09-12T16:08:26.913Z,30.56
2022-09-12T16:10:57.388Z,30.56
2022-09-12T16:13:27.636Z,30.57
2022-09-12T16:15:58.662Z,30.62
2022-09-12T16:18:27.392Z,30.66
2022-09-12T16:20:56.484Z,30.64
2022-09-12T16:23:25.574Z,30.64
2022-09-12T16:26:00.510Z,30.49
2022-09-12T16:28:30.738Z,30.33
2022-09-12T16:30:59.549Z,30.21
2022-09-12T16:33:29.084Z,30.12
2022-09-12T16:36:03.474Z,30.02
2022-09-12T16:38:32.090Z,29.94
2022-09-12T16:41:03.910Z,29.93
2022-09-12T16:43:34.374Z,29.94
2022-09-12T16:46:04.128Z,29.88
2022-09-12T16:48:32.702Z,29.84
2022-09-12T16:51:03.066Z,29.84
2022-09-12T16:53:31.705Z,29.87
2022-09-12T16:55:59.927Z,29.75
2022-09-12T16:58:28.426Z,29.67
2022-09-12T17:01:04.982Z,29.55
2022-09-12T17:03:33.595Z,29.59
2022-09-12T17:06:02.317Z,29.54
2022-09-12T17:08:30.933Z,29.31
2022-09-12T17:11:02.286Z,29.29
2022-09-12T17:13:46.877Z,29.19
2022-09-12T17:16:20.149Z,29.05
2022-09-12T17:18:48.674Z,29.31
2022-09-12T17:21:17.139Z,29.35
2022-09-12T17:23:45.554Z,29.46
2022-09-12T17:26:15.001Z,29.44
2022-09-12T17:28:43.926Z,29.30
2022-09-12T17:31:14.782Z,29.23
2022-09-12T17:33:45.034Z,29.31
2022-09-12T17:36:15.449Z,29.12
2022-09-12T17:38:45.593Z,29.08
2022-09-12T17:41:17.832Z,29.08
2022-09-12T17:43:47.089Z,28.94
2022-09-12T17:46:15.725Z,28.91
2022-09-12T17:48:45.279Z,28.88
2022-09-12T17:51:15.810Z,28.76
2022-09-12T17:53:44.170Z,28.33
2022-09-12T17:56:13.806Z,28.48
2022-09-12T17:58:41.943Z,28.55
2022-09-12T18:01:32.141Z,28.53
2022-09-12T18:04:03.532Z,28.47
2022-09-12T18:06:33.399Z,28.46
2022-09-12T18:09:02.382Z,28.34
2022-09-12T18:11:30.876Z,28.09
2022-09-12T18:13:59.797Z,27.93
2022-09-12T18:16:29.336Z,28.06
2022-09-12T18:18:57.621Z,27.97
2022-09-12T18:21:27.122Z,28.01
2022-09-12T18:23:57.007Z,27.99
2022-09-12T18:26:25.124Z,28.02
2022-09-12T18:28:54.023Z,27.93
2022-09-12T18:31:24.438Z,27.91
2022-09-12T18:33:52.912Z,27.77
2022-09-12T18:36:21.742Z,27.67
2022-09-12T18:38:51.398Z,27.68
2022-09-12T18:41:21.423Z,27.70
2022-09-12T18:43:50.570Z,27.61
2022-09-12T18:46:20.476Z,27.65
2022-09-12T18:48:49.006Z,27.68
2022-09-12T18:51:18.780Z,27.67
2022-09-12T18:53:53.013Z,27.65
2022-09-12T18:56:21.946Z,27.65
2022-09-12T18:58:52.806Z,27.75
2022-09-12T19:01:22.850Z,27.61
2022-09-12T19:03:52.269Z,27.77
2022-09-12T19:06:22.617Z,27.76
2022-09-12T19:08:53.693Z,27.73
2022-09-12T19:11:22.774Z,27.87
2022-09-12T19:13:53.180Z,27.95
2022-09-12T19:16:23.675Z,27.93
2022-09-12T19:18:52.497Z,27.80
2022-09-12T19:21:24.479Z,27.63
2022-09-12T19:23:57.343Z,27.54
2022-09-12T19:26:25.921Z,27.29
2022-09-12T19:28:55.519Z,27.21
2022-09-12T19:31:24.781Z,27.13
2022-09-12T19:33:53.769Z,27.19
2022-09-12T19:39:13.055Z,27.04
2022-09-12T19:41:41.233Z,26.99
2022-09-12T19:44:09.618Z,26.83
2022-09-12T19:46:38.323Z,26.92
2022-09-12T19:49:06.908Z,26.85
2022-09-12T19:51:35.746Z,26.94
2022-09-12T19:54:04.174Z,27.12
2022-09-12T19:56:33.657Z,27.06
2022-09-12T19:59:01.861Z,26.97
2022-09-12T20:01:30.304Z,26.94
2022-09-12T20:03:58.915Z,26.86
2022-09-12T20:06:27.957Z,26.77
2022-09-12T20:08:56.650Z,26.84
2022-09-12T20:11:25.849Z,26.94
2022-09-12T20:13:55.398Z,26.98
2022-09-12T20:16:25.784Z,26.99
2022-09-12T20:18:55.630Z,27.00
2022-09-12T20:21:31.210Z,26.99
2022-09-12T20:24:04.997Z,26.94
2022-09-12T20:26:33.247Z,26.85
2022-09-12T20:29:03.345Z,26.78
2022-09-12T20:31:32.041Z,26.71
2022-09-12T20:34:00.473Z,26.73
2022-09-12T20:36:28.795Z,26.76
2022-09-12T20:38:59.982Z,26.67
2022-09-12T20:41:29.536Z,26.66
2022-09-12T20:43:58.606Z,26.64
2022-09-12T20:46:29.857Z,26.66
2022-09-12T20:48:58.976Z,26.60
2022-09-12T20:51:29.701Z,26.45
2022-09-12T20:53:58.558Z,26.58
2022-09-12T20:56:27.553Z,26.56
2022-09-12T20:58:57.047Z,26.58
2022-09-12T21:01:27.636Z,26.55
2022-09-12T21:03:56.075Z,26.47
2022-09-12T21:06:24.743Z,26.38
2022-09-12T21:08:53.008Z,26.48
2022-09-12T21:11:21.712Z,26.51
2022-09-12T21:13:50.354Z,26.52
2022-09-12T21:16:20.552Z,26.48
2022-09-12T21:18:55.085Z,26.37
2022-09-12T21:21:23.772Z,26.35
2022-09-12T21:23:52.029Z,26.38
2022-09-12T21:26:20.178Z,26.51
2022-09-12T21:28:49.731Z,26.40
2022-09-12T21:31:17.950Z,26.41
2022-09-12T21:33:46.323Z,26.35
2022-09-12T21:36:15.859Z,26.42
2022-09-12T21:38:44.094Z,26.41
2022-09-12T21:41:14.469Z,26.13
2022-09-12T21:43:43.253Z,26.20
2022-09-12T21:46:12.432Z,26.21
2022-09-12T21:48:40.665Z,26.21
2022-09-12T21:51:08.917Z,26.15
2022-09-12T21:53:38.521Z,26.06
2022-09-12T21:56:08.580Z,26.04
2022-09-12T21:58:37.622Z,25.95
2022-09-12T22:01:08.719Z,25.96
2022-09-12T22:03:36.988Z,25.98
2022-09-12T22:06:07.477Z,26.02
2022-09-12T22:08:37.286Z,26.05
2022-09-12T22:11:09.685Z,26.00
2022-09-12T22:13:39.588Z,26.13
2022-09-12T22:16:08.456Z,26.12
2022-09-12T22:18:38.550Z,26.16
2022-09-12T22:21:09.562Z,26.11
2022-09-12T22:23:54.940Z,26.01
2022-09-12T22:26:24.731Z,26.01
2022-09-12T22:28:53.330Z,26.00
2022-09-12T22:31:22.003Z,26.07
2022-09-12T22:33:50.902Z,26.03
2022-09-12T22:36:19.131Z,26.05
2022-09-12T22:38:47.464Z,26.05
2022-09-12T22:41:15.944Z,25.97
2022-09-12T22:43:45.626Z,25.83
2022-09-12T22:46:14.200Z,25.91
2022-09-12T22:48:42.852Z,25.84
2022-09-12T22:51:11.154Z,25.83
2022-09-12T22:53:39.730Z,25.75
2022-09-12T22:56:09.034Z,25.63
2022-09-12T22:58:38.300Z,25.66
2022-09-12T23:01:08.181Z,25.67
2022-09-12T23:03:37.243Z,25.81
2022-09-12T23:06:06.287Z,25.65
2022-09-12T23:08:36.747Z,25.56
2022-09-12T23:11:06.924Z,25.56
2022-09-12T23:13:35.053Z,25.65
2022-09-12T23:16:05.691Z,25.79
2022-09-12T23:18:37.405Z,25.68
2022-09-12T23:21:08.234Z,25.76
2022-09-12T23:23:37.581Z,25.72
2022-09-12T23:26:07.638Z,25.73
2022-09-12T23:28:36.505Z,25.50
2022-09-12T23:31:05.475Z,25.60
2022-09-12T23:33:34.202Z,25.62
2022-09-12T23:36:06.262Z,25.70
2022-09-12T23:38:36.402Z,25.76
2022-09-12T23:41:05.485Z,25.69
2022-09-12T23:43:34.107Z,25.68
2022-09-12T23:46:02.921Z,25.74
2022-09-12T23:48:31.307Z,25.66
2022-09-12T23:50:59.561Z,25.69
2022-09-12T23:53:29.648Z,25.70
2022-09-12T23:55:58.150Z,25.67
2022-09-12T23:58:26.722Z,25.73
